createdAt,value
2018-01-10T00:00:42.571Z,0
2018-01-10T00:01:44.976Z,0
2018-01-10T00:02:47.390Z,0
2018-01-10T00:03:50.086Z,0
2018-01-10T00:04:52.489Z,0
2018-01-10T00:05:54.893Z,0
2018-01-10T00:06:57.318Z,0
2018-01-10T00:07:59.712Z,0
2018-01-10T00:09:02.124Z,0
2018-01-10T00:10:05.043Z,0
2018-01-10T00:11:08.005Z,0
2018-01-10T00:12:10.422Z,0
2018-01-10T00:13:12.826Z,0
2018-01-10T00:14:15.254Z,0
2018-01-10T00:15:17.656Z,0
2018-01-10T00:16:20.073Z,0
2018-01-10T00:17:22.485Z,0
2018-01-10T00:18:24.905Z,0
2018-01-10T00:19:27.314Z,0
2018-01-10T00:20:29.718Z,0
2018-01-10T00:21:32.412Z,0
2018-01-10T00:22:34.824Z,0
2018-01-10T00:23:37.239Z,0
2018-01-10T00:24:39.641Z,0
2018-01-10T00:25:42.054Z,0
2018-01-10T00:26:44.753Z,0
2018-01-10T00:27:47.166Z,0
2018-01-10T00:28:49.688Z,0
2018-01-10T00:29:52.102Z,0
2018-01-10T00:30:54.498Z,0
2018-01-10T00:31:57.061Z,0
2018-01-10T00:32:59.754Z,0
2018-01-10T00:34:02.166Z,0
2018-01-10T00:35:04.749Z,0
2018-01-10T00:36:07.157Z,0
2018-01-10T00:37:09.841Z,0
2018-01-10T00:38:12.252Z,0
2018-01-10T00:39:14.655Z,0
2018-01-10T00:40:17.059Z,0
2018-01-10T00:41:19.486Z,0
2018-01-10T00:42:22.185Z,0
2018-01-10T00:43:24.599Z,0
2018-01-10T00:44:27.019Z,0
2018-01-10T00:45:29.435Z,0
2018-01-10T00:46:32.132Z,0
2018-01-10T00:47:34.542Z,0
2018-01-10T00:48:36.942Z,0
2018-01-10T00:49:39.352Z,0
2018-01-10T00:50:41.768Z,0
2018-01-10T00:51:44.170Z,0
2018-01-10T00:52:46.862Z,0
2018-01-10T00:53:49.283Z,0
2018-01-10T00:54:51.701Z,0
2018-01-10T00:55:54.101Z,0
2018-01-10T00:56:56.510Z,0
2018-01-10T00:57:59.219Z,0
2018-01-10T00:59:01.914Z,0
2018-01-10T01:00:04.321Z,0
2018-01-10T01:01:06.727Z,0
2018-01-10T01:02:09.350Z,0
2018-01-10T01:03:11.774Z,0
2018-01-10T01:04:14.479Z,0
2018-01-10T01:05:16.874Z,0
2018-01-10T01:06:19.294Z,0
2018-01-10T01:07:21.972Z,0
2018-01-10T01:08:24.383Z,0
2018-01-10T01:09:26.796Z,0
2018-01-10T01:10:29.212Z,0
2018-01-10T01:11:31.626Z,0
2018-01-10T01:12:34.042Z,0
2018-01-10T01:13:36.442Z,0
2018-01-10T01:14:38.864Z,0
2018-01-10T01:15:41.392Z,0
2018-01-10T01:16:43.797Z,0
2018-01-10T01:17:46.209Z,0
2018-01-10T01:18:48.651Z,0
2018-01-10T01:19:51.056Z,0
2018-01-10T01:20:53.780Z,0
2018-01-10T01:21:56.606Z,0
2018-01-10T01:22:59.020Z,0
2018-01-10T01:24:01.430Z,0
2018-01-10T01:25:03.833Z,0
2018-01-10T01:26:06.330Z,0
2018-01-10T01:27:08.735Z,0
2018-01-10T01:28:11.137Z,0
2018-01-10T01:29:13.557Z,0
2018-01-10T01:30:16.249Z,0
2018-01-10T01:31:18.646Z,0
2018-01-10T01:32:21.342Z,0
2018-01-10T01:33:24.046Z,0
2018-01-10T01:34:26.739Z,0
2018-01-10T01:35:29.158Z,0
2018-01-10T01:36:31.564Z,0
2018-01-10T01:37:33.973Z,0
2018-01-10T01:38:36.398Z,0
2018-01-10T01:39:38.814Z,0
2018-01-10T01:40:41.217Z,0
2018-01-10T01:41:43.631Z,0
2018-01-10T01:42:46.046Z,0
2018-01-10T01:43:48.455Z,0
2018-01-10T01:44:50.863Z,0
2018-01-10T01:45:53.495Z,0
2018-01-10T01:46:55.855Z,0
2018-01-10T01:47:58.281Z,0
2018-01-10T01:49:00.812Z,0
2018-01-10T01:50:03.229Z,0
2018-01-10T01:51:05.639Z,0
2018-01-10T01:52:08.056Z,0
2018-01-10T01:53:10.456Z,0
2018-01-10T01:54:12.866Z,0
2018-01-10T01:55:15.397Z,0
2018-01-10T01:56:17.806Z,0
2018-01-10T01:57:20.501Z,0
2018-01-10T01:58:23.248Z,0
2018-01-10T01:59:25.651Z,0
2018-01-10T02:00:28.066Z,0
2018-01-10T02:01:30.477Z,0
2018-01-10T02:02:32.894Z,0
2018-01-10T02:03:35.299Z,0
2018-01-10T02:04:37.722Z,0
2018-01-10T02:05:40.128Z,0
2018-01-10T02:06:42.554Z,0
2018-01-10T02:07:44.959Z,0
2018-01-10T02:08:47.368Z,0
2018-01-10T02:09:49.786Z,0
2018-01-10T02:10:52.760Z,0
2018-01-10T02:11:55.168Z,0
2018-01-10T02:12:57.593Z,0
2018-01-10T02:13:59.987Z,0
2018-01-10T02:15:02.404Z,0
2018-01-10T02:16:04.812Z,0
2018-01-10T02:17:07.229Z,0
2018-01-10T02:18:09.925Z,0
2018-01-10T02:19:12.343Z,0
2018-01-10T02:20:14.754Z,0
2018-01-10T02:21:17.158Z,0
2018-01-10T02:22:19.588Z,0
2018-01-10T02:23:22.279Z,0
2018-01-10T02:24:24.692Z,0
2018-01-10T02:25:27.483Z,0
2018-01-10T02:26:29.907Z,0
2018-01-10T02:27:32.319Z,0
2018-01-10T02:28:34.902Z,0
2018-01-10T02:29:37.309Z,0
2018-01-10T02:30:39.724Z,0
2018-01-10T02:31:42.134Z,0
2018-01-10T02:32:44.554Z,0
2018-01-10T02:33:46.961Z,0
2018-01-10T02:34:49.377Z,0
2018-01-10T02:35:51.785Z,0
2018-01-10T02:36:54.491Z,0
2018-01-10T02:37:57.268Z,0
2018-01-10T02:38:59.680Z,0
2018-01-10T02:40:02.089Z,0
2018-01-10T02:41:04.602Z,0
2018-01-10T02:42:07.013Z,0
2018-01-10T02:43:09.421Z,0
2018-01-10T02:44:11.847Z,0
2018-01-10T02:45:14.253Z,0
2018-01-10T02:46:16.654Z,0
2018-01-10T02:47:19.762Z,0
2018-01-10T02:48:22.165Z,0
2018-01-10T02:49:24.873Z,0
2018-01-10T02:50:27.257Z,0
2018-01-10T02:51:29.667Z,0
2018-01-10T02:52:32.108Z,0
2018-01-10T02:53:34.796Z,0
2018-01-10T02:54:37.219Z,0
2018-01-10T02:55:39.622Z,0
2018-01-10T02:56:42.058Z,0
2018-01-10T02:57:44.466Z,0
2018-01-10T02:58:46.908Z,0
2018-01-10T02:59:49.325Z,0
2018-01-10T03:00:51.907Z,0
2018-01-10T03:01:54.925Z,0
2018-01-10T03:02:57.366Z,0
2018-01-10T03:04:00.862Z,0
2018-01-10T03:05:03.444Z,0
2018-01-10T03:06:06.345Z,0
2018-01-10T03:07:09.192Z,0
2018-01-10T03:08:11.828Z,0
2018-01-10T03:09:14.393Z,0
2018-01-10T03:10:16.941Z,0
2018-01-10T03:11:19.505Z,0
2018-01-10T03:12:22.122Z,0
2018-01-10T03:13:25.268Z,0
2018-01-10T03:14:27.833Z,0
2018-01-10T03:15:30.503Z,0
2018-01-10T03:16:32.919Z,0
2018-01-10T03:17:35.435Z,0
2018-01-10T03:18:37.851Z,0
2018-01-10T03:19:40.270Z,0
2018-01-10T03:20:42.684Z,0
2018-01-10T03:21:45.106Z,0
2018-01-10T03:22:47.511Z,0
2018-01-10T03:23:49.919Z,0
2018-01-10T03:24:52.325Z,0
2018-01-10T03:25:54.749Z,0
2018-01-10T03:26:57.259Z,0
2018-01-10T03:27:59.847Z,0
2018-01-10T03:29:02.298Z,0
2018-01-10T03:30:04.755Z,0
2018-01-10T03:31:07.167Z,0
2018-01-10T03:32:09.877Z,0
2018-01-10T03:33:12.277Z,0
2018-01-10T03:34:14.699Z,0
2018-01-10T03:35:17.100Z,0
2018-01-10T03:36:19.780Z,0
2018-01-10T03:37:22.212Z,0
2018-01-10T03:38:24.622Z,0
2018-01-10T03:39:27.310Z,0
2018-01-10T03:40:29.725Z,0
2018-01-10T03:41:32.131Z,0
2018-01-10T03:42:34.534Z,0
2018-01-10T03:43:36.954Z,0
2018-01-10T03:44:39.399Z,0
2018-01-10T03:45:41.783Z,0
2018-01-10T03:46:44.202Z,0
2018-01-10T03:47:46.755Z,0
2018-01-10T03:48:49.570Z,0
2018-01-10T03:49:52.159Z,0
2018-01-10T03:50:54.604Z,0
2018-01-10T03:51:57.017Z,0
2018-01-10T03:52:59.705Z,0
2018-01-10T03:54:02.118Z,0
2018-01-10T03:55:04.819Z,0
2018-01-10T03:56:07.224Z,0
2018-01-10T03:57:09.633Z,0
2018-01-10T03:58:12.326Z,0
2018-01-10T03:59:14.740Z,0
2018-01-10T04:00:17.154Z,0
2018-01-10T04:01:19.558Z,0
2018-01-10T04:02:21.971Z,0
2018-01-10T04:03:24.377Z,0
2018-01-10T04:04:26.793Z,0
2018-01-10T04:05:29.207Z,0
2018-01-10T04:06:31.619Z,0
2018-01-10T04:07:34.046Z,0
2018-01-10T04:08:36.468Z,0
2018-01-10T04:09:38.926Z,0
2018-01-10T04:10:41.451Z,0
2018-01-10T04:11:44.272Z,0
2018-01-10T04:12:46.858Z,0
2018-01-10T04:13:49.281Z,0
2018-01-10T04:14:51.684Z,0
2018-01-10T04:15:54.090Z,0
2018-01-10T04:16:56.496Z,0
2018-01-10T04:17:58.918Z,0
2018-01-10T04:19:01.605Z,0
2018-01-10T04:20:04.018Z,0
2018-01-10T04:21:06.717Z,0
2018-01-10T04:22:09.126Z,0
2018-01-10T04:23:11.531Z,0
2018-01-10T04:24:14.222Z,0
2018-01-10T04:25:16.632Z,0
2018-01-10T04:26:19.036Z,0
2018-01-10T04:27:21.444Z,0
2018-01-10T04:28:24.134Z,0
2018-01-10T04:29:26.575Z,0
2018-01-10T04:30:28.978Z,0
2018-01-10T04:31:31.558Z,0
2018-01-10T04:32:34.022Z,0
2018-01-10T04:33:36.569Z,0
2018-01-10T04:34:38.964Z,0
2018-01-10T04:35:41.659Z,0
2018-01-10T04:36:44.073Z,0
2018-01-10T04:37:46.476Z,0
2018-01-10T04:38:48.884Z,0
2018-01-10T04:39:51.287Z,0
2018-01-10T04:40:53.694Z,0
2018-01-10T04:41:56.111Z,0
2018-01-10T04:42:58.523Z,0
2018-01-10T04:44:00.926Z,0
2018-01-10T04:45:03.335Z,0
2018-01-10T04:46:05.754Z,0
2018-01-10T04:47:08.160Z,0
2018-01-10T04:48:10.564Z,0
2018-01-10T04:49:12.981Z,0
2018-01-10T04:50:15.396Z,0
2018-01-10T04:51:17.791Z,0
2018-01-10T04:52:20.237Z,0
2018-01-10T04:53:22.769Z,0
2018-01-10T04:54:25.237Z,0
2018-01-10T04:55:28.001Z,0
2018-01-10T04:56:30.558Z,0
2018-01-10T04:57:32.961Z,0
2018-01-10T04:58:35.673Z,0
2018-01-10T04:59:38.075Z,0
2018-01-10T05:00:40.770Z,0
2018-01-10T05:01:43.182Z,0
2018-01-10T05:02:45.588Z,0
2018-01-10T05:03:48.276Z,0
2018-01-10T05:04:50.686Z,0
2018-01-10T05:05:53.091Z,0
2018-01-10T05:06:55.507Z,0
2018-01-10T05:07:58.214Z,0
2018-01-10T05:09:00.617Z,0
2018-01-10T05:10:03.032Z,0
2018-01-10T05:11:05.436Z,0
2018-01-10T05:12:08.140Z,0
2018-01-10T05:13:10.841Z,0
2018-01-10T05:14:13.526Z,0
2018-01-10T05:15:15.923Z,0
2018-01-10T05:16:18.396Z,0
2018-01-10T05:17:21.083Z,0
2018-01-10T05:18:23.889Z,0
2018-01-10T05:19:26.759Z,0
2018-01-10T05:20:29.979Z,0
2018-01-10T05:21:33.780Z,0
2018-01-10T05:22:36.543Z,0
2018-01-10T05:23:38.952Z,0
2018-01-10T05:24:41.461Z,0
2018-01-10T05:25:44.280Z,0
2018-01-10T05:26:46.872Z,0
2018-01-10T05:27:49.462Z,0
2018-01-10T05:28:51.901Z,0
2018-01-10T05:29:54.301Z,0
2018-01-10T05:30:56.712Z,0
2018-01-10T05:31:59.126Z,0
2018-01-10T05:33:01.526Z,0
2018-01-10T05:34:03.991Z,0
2018-01-10T05:35:07.071Z,0
2018-01-10T05:36:09.740Z,0
2018-01-10T05:37:12.157Z,0
2018-01-10T05:38:14.572Z,0
2018-01-10T05:39:16.973Z,0
2018-01-10T05:40:19.393Z,0
2018-01-10T05:41:21.785Z,0
2018-01-10T05:42:24.200Z,0
2018-01-10T05:43:26.713Z,0
2018-01-10T05:44:29.196Z,0
2018-01-10T05:45:31.609Z,0
2018-01-10T05:46:34.013Z,0
2018-01-10T05:47:36.427Z,0
2018-01-10T05:48:39.112Z,0
2018-01-10T05:49:41.526Z,0
2018-01-10T05:50:44.224Z,0
2018-01-10T05:51:46.632Z,0
2018-01-10T05:52:49.043Z,0
2018-01-10T05:53:51.471Z,0
2018-01-10T05:54:53.874Z,0
2018-01-10T05:55:56.279Z,0
2018-01-10T05:56:58.808Z,0
2018-01-10T05:58:01.551Z,0
2018-01-10T05:59:04.254Z,0
2018-01-10T06:00:06.667Z,0
2018-01-10T06:01:09.074Z,0
2018-01-10T06:02:11.501Z,0
2018-01-10T06:03:14.274Z,0
2018-01-10T06:04:16.822Z,0
2018-01-10T06:05:19.599Z,0
2018-01-10T06:06:22.172Z,0
2018-01-10T06:07:24.900Z,0
2018-01-10T06:08:27.590Z,0
2018-01-10T06:09:30.026Z,0
2018-01-10T06:10:32.446Z,0
2018-01-10T06:11:35.155Z,0
2018-01-10T06:12:37.849Z,0
2018-01-10T06:13:40.256Z,0
2018-01-10T06:14:42.697Z,0
2018-01-10T06:15:45.116Z,0
2018-01-10T06:16:47.534Z,0
2018-01-10T06:17:50.230Z,0
2018-01-10T06:18:52.650Z,0
2018-01-10T06:19:55.349Z,0
2018-01-10T06:20:57.796Z,0
2018-01-10T06:22:00.223Z,0
2018-01-10T06:23:02.761Z,0
2018-01-10T06:24:05.167Z,0
2018-01-10T06:25:07.696Z,0
2018-01-10T06:26:10.252Z,0
2018-01-10T06:27:12.774Z,0
2018-01-10T06:28:15.201Z,0
2018-01-10T06:29:17.600Z,0
2018-01-10T06:30:20.291Z,0
2018-01-10T06:31:22.698Z,0
2018-01-10T06:32:25.114Z,0
2018-01-10T06:33:27.536Z,0
2018-01-10T06:34:29.939Z,0
2018-01-10T06:35:32.349Z,0
2018-01-10T06:36:34.764Z,0
2018-01-10T06:37:37.169Z,0
2018-01-10T06:38:39.585Z,0
2018-01-10T06:39:42.005Z,0
2018-01-10T06:40:44.398Z,0
2018-01-10T06:41:47.107Z,0
2018-01-10T06:42:49.526Z,0
2018-01-10T06:43:51.983Z,0
2018-01-10T06:44:54.693Z,0
2018-01-10T06:45:57.272Z,0
2018-01-10T06:46:59.781Z,0
2018-01-10T06:48:02.588Z,0
2018-01-10T06:49:05.064Z,4
2018-01-10T06:50:07.468Z,4
2018-01-10T06:51:09.877Z,4
2018-01-10T06:52:12.285Z,0
2018-01-10T06:53:14.705Z,4
2018-01-10T06:54:17.103Z,4
2018-01-10T06:55:19.518Z,4
2018-01-10T06:56:22.256Z,4
2018-01-10T06:57:24.669Z,8
2018-01-10T06:58:27.072Z,4
2018-01-10T06:59:29.773Z,8
2018-01-10T07:00:32.179Z,12
2018-01-10T07:01:34.595Z,12
2018-01-10T07:02:37.008Z,12
2018-01-10T07:03:39.411Z,16
2018-01-10T07:04:41.835Z,20
2018-01-10T07:05:44.241Z,24
2018-01-10T07:06:46.853Z,28
2018-01-10T07:07:49.267Z,32
2018-01-10T07:08:51.749Z,36
2018-01-10T07:09:54.207Z,40
2018-01-10T07:10:56.770Z,44
2018-01-10T07:11:59.168Z,48
2018-01-10T07:13:01.587Z,56
2018-01-10T07:14:04.002Z,64
2018-01-10T07:15:06.694Z,76
2018-01-10T07:16:09.114Z,84
2018-01-10T07:17:11.526Z,96
2018-01-10T07:18:14.504Z,108
2018-01-10T07:19:16.907Z,120
2018-01-10T07:20:19.317Z,136
2018-01-10T07:21:21.730Z,144
2018-01-10T07:22:24.439Z,156
2018-01-10T07:23:26.854Z,164
2018-01-10T07:24:29.260Z,176
2018-01-10T07:25:31.671Z,188
2018-01-10T07:26:34.089Z,212
2018-01-10T07:27:36.520Z,252
2018-01-10T07:28:39.055Z,292
2018-01-10T07:29:41.555Z,336
2018-01-10T07:30:43.985Z,388
2018-01-10T07:31:46.398Z,444
2018-01-10T07:32:49.094Z,500
2018-01-10T07:33:51.498Z,544
2018-01-10T07:34:53.900Z,588
2018-01-10T07:35:56.610Z,628
2018-01-10T07:36:59.296Z,664
2018-01-10T07:38:01.709Z,728
2018-01-10T07:39:04.113Z,820
2018-01-10T07:40:06.525Z,892
2018-01-10T07:41:08.935Z,972
2018-01-10T07:42:11.349Z,1064
2018-01-10T07:43:13.750Z,1180
2018-01-10T07:44:16.448Z,1332
2018-01-10T07:45:19.144Z,1432
2018-01-10T07:46:21.566Z,1512
2018-01-10T07:47:23.965Z,1604
2018-01-10T07:48:26.398Z,1780
2018-01-10T07:49:28.864Z,1908
2018-01-10T07:50:31.325Z,1980
2018-01-10T07:51:34.117Z,2040
2018-01-10T07:52:36.669Z,2112
2018-01-10T07:53:39.067Z,2192
2018-01-10T07:54:41.489Z,2212
2018-01-10T07:55:44.188Z,2080
2018-01-10T07:56:46.583Z,1868
2018-01-10T07:57:48.993Z,1768
2018-01-10T07:58:51.401Z,1804
2018-01-10T07:59:54.092Z,1824
2018-01-10T08:00:56.508Z,1820
2018-01-10T08:01:59.280Z,1764
2018-01-10T08:03:02.063Z,1724
2018-01-10T08:04:04.836Z,1744
2018-01-10T08:05:08.239Z,1736
2018-01-10T08:06:10.757Z,1784
2018-01-10T08:07:13.537Z,1832
2018-01-10T08:08:16.040Z,1888
2018-01-10T08:09:18.466Z,1856
2018-01-10T08:10:20.876Z,1804
2018-01-10T08:11:23.277Z,1808
2018-01-10T08:12:25.686Z,1752
2018-01-10T08:13:28.094Z,1652
2018-01-10T08:14:30.505Z,1556
2018-01-10T08:15:33.193Z,1504
2018-01-10T08:16:35.874Z,1504
2018-01-10T08:17:38.577Z,1564
2018-01-10T08:18:41.264Z,1620
2018-01-10T08:19:43.660Z,1668
2018-01-10T08:20:46.085Z,1632
2018-01-10T08:21:48.492Z,1620
2018-01-10T08:22:50.908Z,1620
2018-01-10T08:23:53.311Z,1624
2018-01-10T08:24:55.718Z,1520
2018-01-10T08:25:58.166Z,1480
2018-01-10T08:27:00.603Z,1504
2018-01-10T08:28:03.151Z,1524
2018-01-10T08:29:05.618Z,1528
2018-01-10T08:30:08.166Z,1692
2018-01-10T08:31:10.572Z,1764
2018-01-10T08:32:12.981Z,1820
2018-01-10T08:33:15.388Z,1948
2018-01-10T08:34:17.791Z,1944
2018-01-10T08:35:20.206Z,2108
2018-01-10T08:36:22.615Z,2152
2018-01-10T08:37:25.021Z,2196
2018-01-10T08:38:27.711Z,2304
2018-01-10T08:39:30.412Z,2384
2018-01-10T08:40:32.816Z,2444
2018-01-10T08:41:35.242Z,2504
2018-01-10T08:42:37.633Z,2332
2018-01-10T08:43:40.043Z,2100
2018-01-10T08:44:42.456Z,2080
2018-01-10T08:45:45.146Z,2016
2018-01-10T08:46:47.865Z,2032
2018-01-10T08:47:50.276Z,2044
2018-01-10T08:48:52.962Z,2128
2018-01-10T08:49:55.379Z,2156
2018-01-10T08:50:57.784Z,2196
2018-01-10T08:52:00.204Z,2272
2018-01-10T08:53:02.896Z,2440
2018-01-10T08:54:05.298Z,2736
2018-01-10T08:55:08.022Z,2876
2018-01-10T08:56:10.429Z,2876
2018-01-10T08:57:13.133Z,3120
2018-01-10T08:58:15.873Z,3536
2018-01-10T08:59:18.282Z,3636
2018-01-10T09:00:20.692Z,3796
2018-01-10T09:01:23.102Z,4000
2018-01-10T09:02:25.518Z,4708
2018-01-10T09:03:27.928Z,7148
2018-01-10T09:04:30.336Z,5796
2018-01-10T09:05:33.025Z,6112
2018-01-10T09:06:35.735Z,8308
2018-01-10T09:07:38.136Z,7364
2018-01-10T09:08:40.552Z,9208
2018-01-10T09:09:42.957Z,12764
2018-01-10T09:10:45.367Z,12404
2018-01-10T09:11:48.088Z,13800
2018-01-10T09:12:50.493Z,14436
2018-01-10T09:13:52.909Z,11396
2018-01-10T09:14:55.324Z,12408
2018-01-10T09:15:58.042Z,8400
2018-01-10T09:17:00.450Z,8800
2018-01-10T09:18:02.873Z,8760
2018-01-10T09:19:05.284Z,11340
2018-01-10T09:20:07.983Z,14952
2018-01-10T09:21:10.683Z,8960
2018-01-10T09:22:13.095Z,8336
2018-01-10T09:23:15.504Z,8376
2018-01-10T09:24:17.919Z,8492
2018-01-10T09:25:20.320Z,8380
2018-01-10T09:26:22.737Z,8208
2018-01-10T09:27:25.154Z,7980
2018-01-10T09:28:27.559Z,7560
2018-01-10T09:29:29.974Z,6888
2018-01-10T09:30:32.673Z,5968
2018-01-10T09:31:35.362Z,4956
2018-01-10T09:32:37.790Z,4384
2018-01-10T09:33:40.201Z,4304
2018-01-10T09:34:43.179Z,4488
2018-01-10T09:35:45.878Z,4680
2018-01-10T09:36:48.285Z,4724
2018-01-10T09:37:50.695Z,4692
2018-01-10T09:38:53.388Z,4600
2018-01-10T09:39:55.788Z,4560
2018-01-10T09:40:58.210Z,4664
2018-01-10T09:42:00.619Z,4820
2018-01-10T09:43:03.320Z,4956
2018-01-10T09:44:06.316Z,5024
2018-01-10T09:45:08.721Z,4892
2018-01-10T09:46:11.132Z,4684
2018-01-10T09:47:13.814Z,4640
2018-01-10T09:48:16.507Z,4736
2018-01-10T09:49:18.919Z,4908
2018-01-10T09:50:21.633Z,5104
2018-01-10T09:51:24.046Z,5232
2018-01-10T09:52:26.465Z,5284
2018-01-10T09:53:28.868Z,5312
2018-01-10T09:54:31.592Z,5336
2018-01-10T09:55:34.001Z,5364
2018-01-10T09:56:36.416Z,5416
2018-01-10T09:57:38.820Z,5448
2018-01-10T09:58:41.237Z,5516
2018-01-10T09:59:43.646Z,5600
2018-01-10T10:00:46.058Z,5640
2018-01-10T10:01:48.660Z,5796
2018-01-10T10:02:51.070Z,6036
2018-01-10T10:03:53.476Z,6360
2018-01-10T10:04:55.889Z,6672
2018-01-10T10:05:58.317Z,6876
2018-01-10T10:07:00.720Z,7044
2018-01-10T10:08:03.927Z,7216
2018-01-10T10:09:08.547Z,7316
2018-01-10T10:10:11.491Z,7256
2018-01-10T10:11:14.223Z,7148
2018-01-10T10:12:17.350Z,7184
2018-01-10T10:13:20.161Z,7400
2018-01-10T10:14:23.872Z,7616
2018-01-10T10:15:26.915Z,7892
2018-01-10T10:16:30.652Z,8248
2018-01-10T10:17:33.843Z,8688
2018-01-10T10:18:36.514Z,9164
2018-01-10T10:19:38.976Z,9940
2018-01-10T10:20:41.397Z,11344
2018-01-10T10:21:43.802Z,11444
2018-01-10T10:22:46.216Z,11488
2018-01-10T10:23:48.913Z,12292
2018-01-10T10:24:51.309Z,14748
2018-01-10T10:25:53.715Z,34464
2018-01-10T10:26:56.131Z,17228
2018-01-10T10:27:58.539Z,39648
2018-01-10T10:29:00.953Z,40640
2018-01-10T10:30:03.370Z,20768
2018-01-10T10:31:05.770Z,25088
2018-01-10T10:32:08.197Z,39744
2018-01-10T10:33:10.890Z,39584
2018-01-10T10:34:13.300Z,40096
2018-01-10T10:35:15.719Z,39264
2018-01-10T10:36:18.120Z,30624
2018-01-10T10:37:20.820Z,25760
2018-01-10T10:38:23.240Z,29568
2018-01-10T10:39:25.640Z,19680
2018-01-10T10:40:28.051Z,31680
2018-01-10T10:41:30.476Z,18080
2018-01-10T10:42:32.883Z,19104
2018-01-10T10:43:35.300Z,16940
2018-01-10T10:44:37.719Z,22080
2018-01-10T10:45:40.135Z,16036
2018-01-10T10:46:42.544Z,31584
2018-01-10T10:47:45.244Z,30976
2018-01-10T10:48:47.670Z,22176
2018-01-10T10:49:50.088Z,22112
2018-01-10T10:50:52.786Z,32448
2018-01-10T10:51:55.500Z,33632
2018-01-10T10:52:57.914Z,32576
2018-01-10T10:54:00.613Z,31648
2018-01-10T10:55:03.026Z,32544
2018-01-10T10:56:05.437Z,32768
2018-01-10T10:57:08.418Z,33344
2018-01-10T10:58:10.858Z,35168
2018-01-10T10:59:13.268Z,36384
2018-01-10T11:00:15.677Z,34816
2018-01-10T11:01:18.093Z,36352
2018-01-10T11:02:20.789Z,37728
2018-01-10T11:03:23.215Z,38400
2018-01-10T11:04:25.636Z,40384
2018-01-10T11:05:28.038Z,36896
2018-01-10T11:06:30.468Z,34848
2018-01-10T11:07:32.894Z,35072
2018-01-10T11:08:35.308Z,34208
2018-01-10T11:09:37.733Z,33856
2018-01-10T11:10:40.435Z,32512
2018-01-10T11:11:42.853Z,31360
2018-01-10T11:12:45.288Z,33504
2018-01-10T11:13:47.982Z,32896
2018-01-10T11:14:50.406Z,31904
2018-01-10T11:15:52.818Z,32096
2018-01-10T11:16:55.244Z,32704
2018-01-10T11:17:57.661Z,36064
2018-01-10T11:19:00.372Z,40160
2018-01-10T11:20:02.783Z,42336
2018-01-10T11:21:05.209Z,38880
2018-01-10T11:22:07.900Z,40096
2018-01-10T11:23:10.315Z,39712
2018-01-10T11:24:12.731Z,36512
2018-01-10T11:25:15.438Z,29216
2018-01-10T11:26:17.854Z,31296
2018-01-10T11:27:20.566Z,35296
2018-01-10T11:28:23.287Z,29472
2018-01-10T11:29:25.706Z,31424
2018-01-10T11:30:28.434Z,39584
2018-01-10T11:31:31.136Z,39424
2018-01-10T11:32:33.553Z,35744
2018-01-10T11:33:35.981Z,32032
2018-01-10T11:34:38.397Z,24288
2018-01-10T11:35:40.814Z,26048
2018-01-10T11:36:43.241Z,30848
2018-01-10T11:37:45.934Z,19456
2018-01-10T11:38:48.941Z,36000
2018-01-10T11:39:51.646Z,35072
2018-01-10T11:40:54.064Z,35968
2018-01-10T11:41:56.488Z,38528
2018-01-10T11:42:58.904Z,40480
2018-01-10T11:44:01.323Z,42400
2018-01-10T11:45:03.736Z,42336
2018-01-10T11:46:06.174Z,41216
2018-01-10T11:47:08.592Z,41440
2018-01-10T11:48:11.291Z,41024
2018-01-10T11:49:13.708Z,39296
2018-01-10T11:50:16.122Z,38240
2018-01-10T11:51:18.543Z,38432
2018-01-10T11:52:20.964Z,39776
2018-01-10T11:53:23.377Z,38688
2018-01-10T11:54:25.800Z,36992
2018-01-10T11:55:28.228Z,37280
2018-01-10T11:56:30.642Z,36352
2018-01-10T11:57:33.067Z,34080
2018-01-10T11:58:35.778Z,33568
2018-01-10T11:59:38.201Z,36000
2018-01-10T12:00:40.625Z,37056
2018-01-10T12:01:43.049Z,38784
2018-01-10T12:02:45.476Z,40640
2018-01-10T12:03:47.906Z,40384
2018-01-10T12:04:50.328Z,38816
2018-01-10T12:05:52.743Z,38656
2018-01-10T12:06:55.168Z,37312
2018-01-10T12:07:57.590Z,33472
2018-01-10T12:09:00.019Z,29984
2018-01-10T12:10:02.736Z,30016
2018-01-10T12:11:05.159Z,30144
2018-01-10T12:12:07.576Z,30816
2018-01-10T12:13:09.999Z,33344
2018-01-10T12:14:12.426Z,32768
2018-01-10T12:15:14.839Z,31552
2018-01-10T12:16:17.268Z,32256
2018-01-10T12:17:19.694Z,30336
2018-01-10T12:18:22.128Z,29792
2018-01-10T12:19:24.537Z,30048
2018-01-10T12:20:26.962Z,31168
2018-01-10T12:21:29.383Z,31104
2018-01-10T12:22:31.813Z,30944
2018-01-10T12:23:34.527Z,30336
2018-01-10T12:24:36.950Z,28928
2018-01-10T12:25:39.372Z,27552
2018-01-10T12:26:41.807Z,25280
2018-01-10T12:27:44.231Z,26912
2018-01-10T12:28:46.650Z,28832
2018-01-10T12:29:49.075Z,29408
2018-01-10T12:30:51.783Z,29216
2018-01-10T12:31:54.486Z,30048
2018-01-10T12:32:56.908Z,31744
2018-01-10T12:33:59.602Z,29696
2018-01-10T12:35:02.022Z,30080
2018-01-10T12:36:04.732Z,28480
2018-01-10T12:37:07.153Z,27200
2018-01-10T12:38:09.591Z,28352
2018-01-10T12:39:12.015Z,26720
2018-01-10T12:40:14.429Z,29184
2018-01-10T12:41:17.428Z,26752
2018-01-10T12:42:20.141Z,11252
2018-01-10T12:43:22.552Z,12192
2018-01-10T12:44:24.973Z,10240
2018-01-10T12:45:27.400Z,9372
2018-01-10T12:46:30.111Z,8264
2018-01-10T12:47:32.828Z,7536
2018-01-10T12:48:35.256Z,7304
2018-01-10T12:49:37.676Z,7240
2018-01-10T12:50:40.108Z,7000
2018-01-10T12:51:42.815Z,6624
2018-01-10T12:52:45.251Z,6276
2018-01-10T12:53:47.650Z,6160
2018-01-10T12:54:50.371Z,6360
2018-01-10T12:55:53.064Z,6344
2018-01-10T12:56:55.491Z,6280
2018-01-10T12:57:58.195Z,6208
2018-01-10T12:59:00.615Z,6016
2018-01-10T13:00:03.034Z,5700
2018-01-10T13:01:05.479Z,5188
2018-01-10T13:02:07.914Z,5048
2018-01-10T13:03:10.370Z,5308
2018-01-10T13:04:12.801Z,6228
2018-01-10T13:05:15.248Z,6664
2018-01-10T13:06:17.670Z,6568
2018-01-10T13:07:20.095Z,6808
2018-01-10T13:08:22.513Z,7124
2018-01-10T13:09:24.956Z,7164
2018-01-10T13:10:27.368Z,7136
2018-01-10T13:11:29.828Z,7360
2018-01-10T13:12:32.248Z,7872
2018-01-10T13:13:34.724Z,8752
2018-01-10T13:14:37.141Z,9092
2018-01-10T13:15:39.559Z,8400
2018-01-10T13:16:41.985Z,7300
2018-01-10T13:17:44.722Z,7080
2018-01-10T13:18:47.134Z,6592
2018-01-10T13:19:49.896Z,6124
2018-01-10T13:20:52.604Z,5684
2018-01-10T13:21:55.309Z,5432
2018-01-10T13:22:57.736Z,5036
2018-01-10T13:24:00.155Z,4800
2018-01-10T13:25:02.571Z,4816
2018-01-10T13:26:05.000Z,4996
2018-01-10T13:27:07.403Z,5076
2018-01-10T13:28:10.145Z,5480
2018-01-10T13:29:12.612Z,5960
2018-01-10T13:30:15.025Z,6324
2018-01-10T13:31:17.439Z,6080
2018-01-10T13:32:19.852Z,5700
2018-01-10T13:33:22.278Z,5252
2018-01-10T13:34:24.985Z,4888
2018-01-10T13:35:27.393Z,4608
2018-01-10T13:36:29.816Z,4312
2018-01-10T13:37:32.226Z,4040
2018-01-10T13:38:34.948Z,3664
2018-01-10T13:39:37.366Z,3312
2018-01-10T13:40:40.369Z,3192
2018-01-10T13:41:42.832Z,3116
2018-01-10T13:42:45.305Z,2980
2018-01-10T13:43:47.711Z,2664
2018-01-10T13:44:50.263Z,2472
2018-01-10T13:45:52.986Z,2356
2018-01-10T13:46:55.401Z,2232
2018-01-10T13:47:57.820Z,2124
2018-01-10T13:49:00.257Z,2024
2018-01-10T13:50:02.686Z,1964
2018-01-10T13:51:06.215Z,1896
2018-01-10T13:52:20.717Z,1756
2018-01-10T13:53:40.525Z,1608
2018-01-10T13:54:46.683Z,1552
2018-01-10T13:55:51.345Z,1528
2018-01-10T13:56:53.920Z,1456
2018-01-10T13:57:56.341Z,1388
2018-01-10T13:58:58.753Z,1352
2018-01-10T14:00:01.246Z,1324
2018-01-10T14:01:03.579Z,1316
2018-01-10T14:02:05.981Z,1284
2018-01-10T14:03:08.392Z,1252
2018-01-10T14:04:10.808Z,1196
2018-01-10T14:05:13.215Z,1160
2018-01-10T14:06:15.929Z,1152
2018-01-10T14:07:18.334Z,1132
2018-01-10T14:08:20.749Z,1108
2018-01-10T14:09:23.181Z,1088
2018-01-10T14:10:25.681Z,1060
2018-01-10T14:11:28.200Z,1056
2018-01-10T14:12:30.620Z,1056
2018-01-10T14:13:33.043Z,1040
2018-01-10T14:14:35.445Z,1012
2018-01-10T14:15:37.882Z,996
2018-01-10T14:16:40.304Z,992
2018-01-10T14:17:42.709Z,980
2018-01-10T14:18:45.403Z,988
2018-01-10T14:19:48.187Z,1016
2018-01-10T14:20:50.605Z,1052
2018-01-10T14:21:53.612Z,1064
2018-01-10T14:22:56.074Z,1064
2018-01-10T14:23:58.471Z,1128
2018-01-10T14:25:00.886Z,1152
2018-01-10T14:26:03.327Z,1108
2018-01-10T14:27:06.011Z,1076
2018-01-10T14:28:08.643Z,1072
2018-01-10T14:29:11.052Z,1040
2018-01-10T14:30:13.468Z,992
2018-01-10T14:31:15.885Z,920
2018-01-10T14:32:18.330Z,876